Terminal Aerodrome Forecast
Issued by NWS Goodland, KS

Home | Current Version | Previous Version | Text Only | Print | Product List | Glossary On
Versions: 1 2 3 4 5 6 7 8 9 10 11 12 13 14 15 16 17 18 19
000
FTUS43 KGLD 200521
TAFGLD
TAF
KGLD 200521Z 2006/2106 20012KT P6SM SCT080
     FM200900 23006KT 6SM BR SCT020
     FM201400 02010KT P6SM SCT110
     FM202100 06008KT P6SM SCT060=

USA.gov is the U.S. government's official web portal to all federal, state and local government web resources and services.